Impacts METAR Board
IDs:

KMCO - Orlando Intl, FL, US

Updated at: 1900 UTC 23 Sep 2018
Potential Impact None Slight Moderate High
Time 23/07Z 23/08Z 23/09Z 23/10Z 23/11Z 23/12Z 23/13Z 23/14Z 23/15Z 23/16Z 23/17Z 23/18Z 23/19Z
Temp76 76 75 75 77 78 81 82 85 79 81 84 87
Dewpt74 74 74 74 74 74 74 74 74 76 76 76 75
Altim30.00 29.98 29.97 29.97 29.98 29.99 30.01 30.03 30.04 30.04 30.03 30.01 29.98
VIS7 10 10 10 10 10 10 10 10 9 10 10 10
CIG31 250 250 -- -- -- -- 60 60 48 80 250 300
CoverBKNBKNBKNSCTFEWFEWSCTBKNBKNBKNBKNBKNBKN
FltCatVFRVFRVFRVFRVFRVFRVFRVFRVFRVFRVFRVFRVFR
WX-RA-----------------RA------
WDir20003601060605080100160130120120
WSpd4 0 5 4 5 6 7 7 10 6 6 6 9
WGst-- -- -- -- -- -- -- -- -- -- -- -- --
Raw hourly METARs
KMCO 230705Z 20004KT 7SM -RA FEW013 BKN031 BKN250 24/23 A3000 RMK AO2 RAB0659 P0001 T02440233
KMCO 230753Z 00000KT 10SM FEW025 FEW050 BKN250 24/23 A2998 RMK AO2 RAB0659E08 SLP150 P0001 T02440233
KMCO 230853Z 36005KT 10SM FEW025 BKN250 24/23 A2997 RMK AO2 SLP148 60001 T02390233 56012
KMCO 230953Z 01004KT 10SM FEW025 SCT250 24/23 A2997 RMK AO2 SLP148 T02390233
KMCO 231053Z 06005KT 10SM FEW025 FEW250 25/23 A2998 RMK AO2 SLP151 T02500233
KMCO 231153Z 06006KT 10SM FEW025 FEW250 26/23 A2999 RMK AO2 SLP155 60001 70001 T02560233 10256 20239 53007
KMCO 231253Z 05007KT 10SM SCT026 SCT250 27/23 A3001 RMK AO2 SLP161 T02720233
KMCO 231353Z 08007KT 10SM FEW035 BKN060 BKN250 28/23 A3003 RMK AO2 SLP168 T02780233
KMCO 231453Z 10010KT 10SM SCT040 BKN060 BKN250 29/23 A3004 RMK AO2 SLP169 CB DSNT SE MOV NW T02940233 51015
KMCO 231553Z 16006KT 9SM -RA SCT038 BKN048CB BKN250 26/24 A3004 RMK AO2 RAB45 TSE18B24E39 SLP170 CB SW MOV NW P0000 T02610244
KMCO 231653Z 13006KT 10SM FEW045 BKN080 BKN250 27/24 A3003 RMK AO2 RAE1555 SLP167 CB DSNT SE MOV NW P0000 T02720244
KMCO 231753Z 12006KT 10SM FEW050 SCT100 BKN250 29/24 A3001 RMK AO2 LTG DSNT W SLP161 60000 T02890244 10300 20256 58009
KMCO 231853Z 12009KT 10SM FEW050 FEW100 SCT250 BKN300 31/24 A2998 RMK AO2 SLP150 CB DSNT S-SW T03060239



Page loaded:  19:36 UTC  |   12:36 PM Pacific  |   01:36 PM Mountain  |   02:36 PM Central  |   03:36 PM Eastern

 

ADVISORIES

FORECASTS

FORECASTS

OBSERVATIONS

USER TOOLS

ABOUT US